Time;durP1;ratioP1;P1;durP2;ratioP2;P2;SDS_P1;SDS_P2;PMS_P1;PMS_P2;Temp;Humidity;BMP_temperature;BMP_pressure;BME280_temperature;BME280_humidity;BME280_pressure;Samples;Min_cycle;Max_cycle;Signal;HPM_P1;HPM_P2
2021/10/16 00:01:13;;;;;;;10.43;7.60;;;9.20;99.90;;;;;;4992016;28;20198;-64
2021/10/16 00:03:39;;;;;;;8.53;7.63;;;9.10;99.90;;;;;;4991412;28;20215;-65
2021/10/16 00:06:04;;;;;;;8.97;8.03;;;9.10;99.90;;;;;;4992351;28;20246;-64
2021/10/16 00:08:30;;;;;;;9.90;8.73;;;9.10;99.90;;;;;;4991454;28;20481;-64
2021/10/16 00:10:56;;;;;;;11.80;10.30;;;9.10;99.90;;;;;;4991612;28;20214;-65
2021/10/16 00:13:21;;;;;;;12.33;11.10;;;9.10;99.90;;;;;;4988603;28;20209;-65
2021/10/16 00:15:47;;;;;;;10.00;8.83;;;9.10;99.90;;;;;;4980344;28;20184;-65
2021/10/16 00:18:14;;;;;;;10.57;9.57;;;9.00;99.90;;;;;;4982840;28;20187;-65
2021/10/16 00:20:40;;;;;;;13.00;10.67;;;9.00;99.90;;;;;;4989265;28;20442;-64
2021/10/16 00:23:06;;;;;;;11.60;10.47;;;9.10;99.90;;;;;;4991922;28;20458;-65
2021/10/16 00:25:32;;;;;;;9.27;8.47;;;9.10;99.90;;;;;;4992243;28;20442;-64
2021/10/16 00:27:57;;;;;;;8.90;7.87;;;9.20;99.90;;;;;;4991801;28;20187;-65
2021/10/16 00:30:23;;;;;;;9.20;8.33;;;9.20;99.90;;;;;;4991862;28;20199;-64
2021/10/16 00:32:48;;;;;;;13.60;9.07;;;9.20;99.90;;;;;;4991935;28;20786;-64
2021/10/16 00:35:14;;;;;;;14.37;10.73;;;9.30;99.90;;;;;;4992303;28;20198;-65
2021/10/16 00:37:39;;;;;;;16.10;12.03;;;9.30;99.90;;;;;;4991849;28;20203;-64
2021/10/16 00:40:06;;;;;;;12.03;10.80;;;9.20;99.90;;;;;;4991602;28;20188;-65
2021/10/16 00:42:45;;;;;;;11.77;10.07;;;9.20;99.90;;;;;;4992101;28;20179;-65
2021/10/16 00:45:11;;;;;;;9.93;9.03;;;9.30;99.90;;;;;;4991901;28;20434;-64
2021/10/16 00:47:37;;;;;;;11.20;9.90;;;9.40;99.90;;;;;;4991467;28;20446;-65
2021/10/16 00:50:03;;;;;;;12.70;10.13;;;9.50;99.90;;;;;;4991604;28;20976;-65
2021/10/16 00:52:29;;;;;;;11.57;10.50;;;9.60;99.90;;;;;;4991915;28;20179;-65
2021/10/16 00:54:54;;;;;;;11.17;10.07;;;9.70;99.90;;;;;;4992098;28;20525;-64
2021/10/16 00:57:20;;;;;;;12.93;11.57;;;9.80;99.90;;;;;;4991498;28;20184;-65
2021/10/16 00:59:46;;;;;;;10.50;9.50;;;9.80;99.90;;;;;;4991568;28;20270;-65
2021/10/16 01:02:19;;;;;;;9.70;8.70;;;9.80;99.90;;;;;;4991897;28;20187;-65
2021/10/16 01:04:45;;;;;;;10.93;9.07;;;9.70;99.90;;;;;;4994430;28;20215;-65
2021/10/16 01:07:10;;;;;;;8.60;7.90;;;9.50;99.90;;;;;;4994166;28;20431;-65
2021/10/16 01:09:36;;;;;;;9.10;8.30;;;9.60;99.90;;;;;;4995168;28;20716;-64
2021/10/16 01:12:03;;;;;;;9.63;8.60;;;9.60;99.90;;;;;;4995131;28;20226;-64
2021/10/16 01:14:28;;;;;;;12.73;9.90;;;9.60;99.90;;;;;;4995096;28;20200;-64
2021/10/16 01:16:57;;;;;;;10.17;9.20;;;9.50;99.90;;;;;;4995190;28;21006;-65
2021/10/16 01:19:25;;;;;;;10.83;9.20;;;9.40;99.90;;;;;;4995079;28;20180;-65
2021/10/16 01:21:52;;;;;;;11.17;10.03;;;9.50;99.90;;;;;;4995303;28;20438;-64
2021/10/16 01:24:19;;;;;;;11.73;10.63;;;9.50;99.90;;;;;;4994994;28;21038;-65
2021/10/16 01:26:47;;;;;;;10.73;9.27;;;9.60;99.90;;;;;;4994911;28;20433;-65
2021/10/16 01:29:16;;;;;;;11.00;9.90;;;9.50;99.90;;;;;;4994677;28;20486;-65
2021/10/16 01:31:42;;;;;;;12.27;10.43;;;9.40;99.90;;;;;;4994998;28;20462;-65
2021/10/16 01:34:08;;;;;;;10.53;9.07;;;9.30;99.90;;;;;;4995004;28;20462;-65
2021/10/16 01:36:41;;;;;;;10.67;9.67;;;9.50;99.90;;;;;;4995051;28;20447;-64
2021/10/16 01:39:07;;;;;;;11.33;9.27;;;9.60;99.90;;;;;;4994230;28;20234;-66
2021/10/16 01:41:33;;;;;;;11.83;10.70;;;9.70;99.90;;;;;;4993630;28;20968;-65
2021/10/16 01:43:59;;;;;;;13.53;11.73;;;9.60;99.90;;;;;;4994812;28;20549;-65
2021/10/16 01:46:24;;;;;;;12.00;10.10;;;9.70;99.90;;;;;;4994732;28;20182;-65
2021/10/16 01:48:50;;;;;;;12.30;10.07;;;9.70;99.90;;;;;;4994159;28;20534;-65
2021/10/16 01:51:18;;;;;;;11.60;10.30;;;9.70;99.90;;;;;;4994613;28;20214;-65
2021/10/16 01:53:45;;;;;;;11.40;10.27;;;9.80;99.90;;;;;;4990036;28;20207;-65
2021/10/16 01:56:10;;;;;;;9.57;8.67;;;10.00;99.90;;;;;;4987780;28;20430;-66
2021/10/16 01:58:36;;;;;;;9.80;8.80;;;10.00;99.90;;;;;;4993962;28;20448;-65
2021/10/16 02:01:01;;;;;;;11.47;10.37;;;10.00;99.90;;;;;;4994191;28;20186;-65
2021/10/16 02:03:27;;;;;;;11.40;10.20;;;10.00;99.90;;;;;;4994188;28;20305;-66
2021/10/16 02:05:52;;;;;;;14.13;9.20;;;10.00;99.90;;;;;;4975815;28;20187;-65
2021/10/16 02:08:18;;;;;;;10.60;9.50;;;9.90;99.90;;;;;;4987722;28;20645;-66
2021/10/16 02:10:43;;;;;;;10.73;9.63;;;9.80;99.90;;;;;;4989057;28;20255;-65
2021/10/16 02:13:10;;;;;;;13.00;11.07;;;10.00;99.90;;;;;;4994134;28;20728;-65
2021/10/16 02:15:35;;;;;;;11.47;9.20;;;10.00;99.90;;;;;;4993724;28;20180;-65
2021/10/16 02:18:01;;;;;;;10.90;9.63;;;10.10;99.90;;;;;;4993917;28;20538;-65
2021/10/16 02:20:26;;;;;;;13.37;10.00;;;10.20;99.90;;;;;;4980197;28;20184;-65
2021/10/16 02:22:52;;;;;;;10.57;9.47;;;10.20;99.90;;;;;;4993203;28;20211;-66
2021/10/16 02:25:17;;;;;;;13.20;9.90;;;10.00;99.90;;;;;;4992759;28;20218;-65
2021/10/16 02:27:43;;;;;;;10.83;9.80;;;9.90;99.90;;;;;;4993638;28;20183;-65
2021/10/16 02:30:09;;;;;;;12.17;10.03;;;9.80;99.90;;;;;;4993725;28;20207;-65
2021/10/16 02:32:35;;;;;;;15.57;11.33;;;9.80;99.90;;;;;;4993661;28;20186;-66
2021/10/16 02:35:01;;;;;;;12.47;11.20;;;9.90;99.90;;;;;;4993580;28;20430;-65
2021/10/16 02:37:26;;;;;;;11.10;10.10;;;9.80;99.90;;;;;;4993439;28;20461;-65
2021/10/16 02:39:52;;;;;;;11.30;9.87;;;10.00;99.90;;;;;;4993663;28;20653;-65
2021/10/16 02:42:17;;;;;;;11.57;10.37;;;10.00;99.90;;;;;;4993840;28;20183;-65
2021/10/16 02:44:43;;;;;;;12.43;11.13;;;10.00;99.90;;;;;;4993713;28;20644;-65
2021/10/16 02:47:09;;;;;;;13.43;11.90;;;10.00;99.90;;;;;;4993383;28;20172;-65
2021/10/16 02:49:34;;;;;;;15.43;11.80;;;10.10;99.90;;;;;;4993232;28;20792;-66
2021/10/16 02:52:00;;;;;;;13.30;11.60;;;10.10;99.90;;;;;;4993284;28;20187;-66
2021/10/16 02:54:25;;;;;;;12.10;10.90;;;10.20;99.90;;;;;;4993231;28;20195;-65
2021/10/16 02:56:51;;;;;;;11.33;9.70;;;10.30;99.90;;;;;;4993227;28;20259;-65
2021/10/16 02:59:16;;;;;;;12.00;10.27;;;10.30;99.90;;;;;;4993248;28;20179;-66
2021/10/16 03:01:42;;;;;;;11.47;10.23;;;10.20;99.90;;;;;;4993243;28;20714;-65
2021/10/16 03:04:07;;;;;;;10.03;9.13;;;10.10;99.90;;;;;;4993220;28;20211;-65
2021/10/16 03:06:33;;;;;;;11.63;10.43;;;10.10;99.90;;;;;;4993093;28;20225;-66
2021/10/16 03:08:58;;;;;;;11.43;10.03;;;10.10;99.90;;;;;;4992845;28;20638;-65
2021/10/16 03:11:24;;;;;;;10.37;9.37;;;10.10;99.90;;;;;;4993295;28;20550;-65
2021/10/16 03:13:50;;;;;;;11.30;10.10;;;9.90;99.90;;;;;;4993204;28;20249;-65
2021/10/16 03:16:16;;;;;;;11.30;10.00;;;9.70;99.90;;;;;;4992903;28;20179;-66
2021/10/16 03:18:43;;;;;;;14.20;11.77;;;9.80;99.90;;;;;;4992759;28;20172;-66
2021/10/16 03:21:09;;;;;;;12.57;11.27;;;9.90;99.90;;;;;;4980638;28;20438;-66
2021/10/16 03:23:34;;;;;;;10.50;9.60;;;10.00;99.90;;;;;;4976873;28;20550;-65
2021/10/16 03:26:00;;;;;;;14.00;10.13;;;10.00;99.90;;;;;;4983847;28;20569;-65
2021/10/16 03:28:25;;;;;;;10.73;9.73;;;10.00;99.90;;;;;;4991804;28;20238;-65
2021/10/16 03:30:51;;;;;;;10.90;9.40;;;9.90;99.90;;;;;;4992612;28;20326;-65
2021/10/16 03:33:16;;;;;;;12.93;10.40;;;9.90;99.90;;;;;;4992691;28;20195;-65
2021/10/16 03:35:42;;;;;;;11.50;10.30;;;9.80;99.90;;;;;;5009201;28;20179;-66
2021/10/16 03:38:08;;;;;;;19.10;15.00;;;9.80;99.90;;;;;;5008587;28;20179;-66
2021/10/16 03:40:33;;;;;;;13.53;11.30;;;9.80;99.90;;;;;;4992406;28;20176;-65
2021/10/16 03:42:59;;;;;;;10.70;9.60;;;9.80;99.90;;;;;;4992291;28;20565;-65
2021/10/16 03:45:25;;;;;;;12.53;11.17;;;9.70;99.90;;;;;;4991742;28;20795;-65
2021/10/16 03:47:51;;;;;;;11.93;10.73;;;9.70;99.90;;;;;;4992134;28;20222;-66
2021/10/16 03:50:17;;;;;;;15.37;11.10;;;9.60;99.90;;;;;;4992418;28;20459;-65
2021/10/16 03:52:43;;;;;;;11.80;10.60;;;9.50;99.90;;;;;;4992220;28;20545;-65
2021/10/16 03:55:09;;;;;;;12.50;11.10;;;9.60;99.90;;;;;;4992469;28;20438;-66
2021/10/16 03:57:34;;;;;;;15.63;12.20;;;9.70;99.90;;;;;;4992044;28;20435;-65
2021/10/16 04:00:00;;;;;;;23.00;18.20;;;9.70;99.90;;;;;;4992146;28;20548;-66
2021/10/16 04:02:27;;;;;;;22.73;16.47;;;9.70;99.90;;;;;;5007404;28;20211;-66
2021/10/16 04:04:53;;;;;;;19.03;15.27;;;9.80;99.90;;;;;;4991227;28;20199;-66
2021/10/16 04:07:19;;;;;;;18.00;15.20;;;9.80;99.90;;;;;;4992018;28;20490;-65
2021/10/16 04:09:44;;;;;;;27.70;18.50;;;9.80;99.90;;;;;;4991900;28;20498;-67
2021/10/16 04:12:10;;;;;;;27.33;19.23;;;9.70;99.90;;;;;;4992345;28;20258;-65
2021/10/16 04:14:36;;;;;;;39.93;22.73;;;9.80;99.90;;;;;;4992039;28;20204;-65
2021/10/16 04:17:02;;;;;;;29.57;19.73;;;9.70;99.90;;;;;;4991999;28;20176;-66
2021/10/16 04:19:27;;;;;;;35.63;22.97;;;9.80;99.90;;;;;;4991939;28;20526;-66
2021/10/16 04:21:53;;;;;;;38.93;22.70;;;9.70;99.90;;;;;;4991887;28;20438;-65
2021/10/16 04:24:19;;;;;;;45.53;22.83;;;9.70;99.90;;;;;;4992133;28;20191;-65
2021/10/16 04:26:45;;;;;;;46.57;25.77;;;9.70;99.90;;;;;;4992132;28;20175;-65
2021/10/16 04:29:11;;;;;;;39.63;22.50;;;9.70;99.90;;;;;;4992011;28;20466;-65
2021/10/16 04:31:36;;;;;;;39.70;23.47;;;9.70;99.90;;;;;;4992143;28;20286;-66
2021/10/16 04:34:04;;;;;;;35.87;22.90;;;9.90;99.90;;;;;;4992174;28;20229;-65
2021/10/16 04:36:30;;;;;;;35.07;22.20;;;10.00;99.90;;;;;;4992148;28;20175;-65
2021/10/16 04:38:56;;;;;;;25.47;16.87;;;10.10;99.90;;;;;;4993502;28;20435;-65
2021/10/16 04:41:22;;;;;;;26.37;16.27;;;10.00;99.90;;;;;;4995934;28;21018;-65
2021/10/16 04:43:48;;;;;;;22.03;15.67;;;9.90;99.90;;;;;;4995608;28;20466;-66
2021/10/16 04:46:13;;;;;;;16.57;13.03;;;10.00;99.90;;;;;;4995832;28;20175;-66
2021/10/16 04:48:43;;;;;;;19.70;14.40;;;10.00;99.90;;;;;;4995720;28;20176;-65
2021/10/16 04:51:10;;;;;;;19.63;14.17;;;10.00;99.90;;;;;;4995098;28;20281;-65
2021/10/16 04:53:36;;;;;;;24.13;18.27;;;10.00;99.90;;;;;;4995363;28;20458;-66
2021/10/16 04:56:01;;;;;;;27.77;18.90;;;10.00;99.90;;;;;;4995729;28;20898;-66
2021/10/16 04:58:27;;;;;;;27.07;19.80;;;9.90;99.90;;;;;;4995183;28;20186;-66
2021/10/16 05:00:52;;;;;;;31.80;19.60;;;10.00;99.90;;;;;;4995503;28;20179;-66
2021/10/16 05:03:18;;;;;;;33.17;20.40;;;10.10;99.90;;;;;;4995635;28;20230;-65
2021/10/16 05:05:43;;;;;;;35.73;21.83;;;10.10;99.90;;;;;;4995386;28;20255;-66
2021/10/16 05:08:09;;;;;;;36.73;22.70;;;10.00;99.90;;;;;;4995098;28;20234;-65
2021/10/16 05:10:35;;;;;;;38.10;25.10;;;10.00;99.90;;;;;;4995340;28;20647;-66
2021/10/16 05:13:01;;;;;;;32.60;18.80;;;10.00;99.90;;;;;;4995242;28;20609;-66
2021/10/16 05:15:26;;;;;;;31.20;19.43;;;10.10;99.90;;;;;;4995339;28;20204;-65
2021/10/16 05:17:53;;;;;;;28.87;17.27;;;10.30;99.90;;;;;;4995175;28;20184;-65
2021/10/16 05:20:18;;;;;;;33.13;18.87;;;10.30;99.90;;;;;;4995058;28;20258;-65
2021/10/16 05:22:44;;;;;;;28.13;18.77;;;10.30;99.90;;;;;;4990436;28;20527;-65
2021/10/16 05:25:10;;;;;;;27.20;18.80;;;10.30;99.90;;;;;;4987665;28;20579;-66
2021/10/16 05:27:37;;;;;;;21.77;17.07;;;10.30;99.90;;;;;;4994826;28;20447;-65
2021/10/16 05:30:02;;;;;;;25.23;17.93;;;10.30;99.90;;;;;;4994941;28;20509;-65
2021/10/16 05:32:28;;;;;;;22.37;16.97;;;10.20;99.90;;;;;;4994836;28;20467;-65
2021/10/16 05:34:53;;;;;;;19.80;15.07;;;10.20;99.90;;;;;;4995075;28;20195;-65
2021/10/16 05:37:19;;;;;;;20.70;15.40;;;10.20;99.90;;;;;;4994630;28;20222;-64
2021/10/16 05:39:45;;;;;;;18.67;14.70;;;10.20;99.90;;;;;;4992856;28;20550;-65
2021/10/16 05:42:10;;;;;;;21.40;16.13;;;10.30;99.90;;;;;;4994966;28;20222;-65
2021/10/16 05:44:36;;;;;;;20.07;15.90;;;10.40;99.90;;;;;;4994368;28;20948;-67
2021/10/16 05:47:02;;;;;;;22.53;16.30;;;10.30;99.90;;;;;;4994867;28;20191;-67
2021/10/16 05:49:27;;;;;;;23.07;14.90;;;10.20;99.90;;;;;;4994032;28;20649;-65
2021/10/16 05:51:53;;;;;;;16.40;14.30;;;10.20;99.90;;;;;;4994077;28;20191;-65
2021/10/16 05:54:18;;;;;;;17.90;13.80;;;10.30;99.90;;;;;;4994726;28;20622;-65
2021/10/16 05:56:44;;;;;;;19.07;15.13;;;10.30;99.90;;;;;;4994544;28;20182;-64
2021/10/16 05:59:10;;;;;;;20.37;17.50;;;10.40;99.90;;;;;;4994512;28;20178;-65
2021/10/16 06:01:35;;;;;;;23.07;16.13;;;10.40;99.90;;;;;;4994384;28;20192;-65
2021/10/16 06:04:01;;;;;;;19.07;14.47;;;10.40;99.90;;;;;;4993954;28;20219;-64
2021/10/16 06:06:26;;;;;;;18.50;16.17;;;10.30;99.90;;;;;;4994424;28;20183;-65
2021/10/16 06:08:52;;;;;;;17.13;13.67;;;10.30;99.90;;;;;;4994208;28;20656;-65
2021/10/16 06:11:17;;;;;;;17.63;13.43;;;10.30;99.90;;;;;;4994390;28;20294;-65
2021/10/16 06:13:43;;;;;;;14.70;13.20;;;10.30;99.90;;;;;;4994230;28;20191;-64
2021/10/16 06:16:09;;;;;;;17.73;14.07;;;10.20;99.90;;;;;;4994003;28;20180;-65
2021/10/16 06:18:34;;;;;;;15.50;13.90;;;10.20;99.90;;;;;;4993946;28;20179;-65
2021/10/16 06:21:03;;;;;;;17.77;14.00;;;10.30;99.90;;;;;;4994347;28;20175;-65
2021/10/16 06:23:29;;;;;;;15.17;13.50;;;10.10;99.90;;;;;;4993599;28;20194;-65
2021/10/16 06:25:54;;;;;;;20.87;15.20;;;10.10;99.90;;;;;;4993979;28;20799;-65
2021/10/16 06:28:20;;;;;;;24.20;13.60;;;10.20;99.90;;;;;;4993887;28;20195;-65
2021/10/16 06:30:46;;;;;;;20.30;14.10;;;10.20;99.90;;;;;;4993990;28;20237;-64
2021/10/16 06:33:11;;;;;;;20.40;13.33;;;10.10;99.90;;;;;;4993726;28;20286;-65
2021/10/16 06:35:38;;;;;;;20.07;13.70;;;10.20;99.90;;;;;;4994104;28;20446;-65
2021/10/16 06:38:04;;;;;;;18.43;12.83;;;10.20;99.90;;;;;;4993258;28;20179;-65
2021/10/16 06:40:30;;;;;;;15.53;13.93;;;10.10;99.90;;;;;;4993699;28;20430;-65
2021/10/16 06:42:56;;;;;;;16.07;12.87;;;10.10;99.90;;;;;;4993140;28;20836;-65
2021/10/16 06:45:21;;;;;;;19.40;13.97;;;10.30;99.90;;;;;;4993788;28;20529;-64
2021/10/16 06:47:47;;;;;;;16.10;14.33;;;10.30;99.90;;;;;;4993053;28;20182;-65
2021/10/16 06:50:12;;;;;;;17.67;14.40;;;10.40;99.90;;;;;;4993370;28;20238;-65
2021/10/16 06:52:38;;;;;;;15.57;13.60;;;10.30;99.90;;;;;;4993061;28;20171;-64
2021/10/16 06:55:04;;;;;;;15.43;13.53;;;10.40;99.90;;;;;;4992343;28;20258;-65
2021/10/16 06:57:30;;;;;;;16.87;15.00;;;10.40;99.90;;;;;;4993061;28;20179;-65
2021/10/16 06:59:55;;;;;;;17.13;15.43;;;10.40;99.90;;;;;;4993135;28;20443;-65
2021/10/16 07:02:21;;;;;;;15.43;13.63;;;10.50;99.90;;;;;;4993113;28;20237;-64
2021/10/16 07:04:46;;;;;;;19.90;13.27;;;10.60;99.90;;;;;;4991302;28;20214;-65
2021/10/16 07:07:12;;;;;;;14.97;13.30;;;10.70;99.90;;;;;;4992695;28;20179;-65
2021/10/16 07:09:37;;;;;;;15.37;13.77;;;10.70;99.90;;;;;;4992423;28;20184;-64
2021/10/16 07:12:03;;;;;;;20.20;16.50;;;10.70;99.90;;;;;;4992561;28;20179;-65
2021/10/16 07:14:29;;;;;;;19.10;15.67;;;10.80;99.90;;;;;;4992698;28;20196;-65
2021/10/16 07:16:54;;;;;;;22.63;16.17;;;10.80;99.90;;;;;;4991155;28;20943;-65
2021/10/16 07:19:20;;;;;;;23.70;16.83;;;10.80;99.90;;;;;;4992268;28;20183;-64
2021/10/16 07:21:46;;;;;;;21.30;16.50;;;10.70;99.90;;;;;;4992682;28;20175;-65
2021/10/16 07:24:11;;;;;;;20.90;16.53;;;10.70;99.90;;;;;;4992822;28;20200;-65
2021/10/16 07:26:39;;;;;;;22.10;16.00;;;10.70;99.90;;;;;;4990037;28;20435;-65
2021/10/16 07:29:05;;;;;;;19.00;16.40;;;10.70;99.90;;;;;;4991909;28;20176;-65
2021/10/16 07:31:31;;;;;;;17.40;14.27;;;10.60;99.90;;;;;;4992150;28;20458;-65
2021/10/16 07:33:59;;;;;;;18.90;15.80;;;10.70;99.90;;;;;;4992210;28;20464;-65
2021/10/16 07:36:28;;;;;;;18.27;16.40;;;10.70;99.90;;;;;;4992861;28;20172;-65
2021/10/16 07:38:53;;;;;;;16.27;14.40;;;10.80;99.90;;;;;;4991988;28;20505;-66
2021/10/16 07:41:19;;;;;;;17.23;15.43;;;10.90;99.90;;;;;;4992642;28;20442;-66
2021/10/16 07:43:44;;;;;;;19.03;16.00;;;11.00;99.90;;;;;;4992316;28;20195;-65
2021/10/16 07:46:10;;;;;;;23.73;15.83;;;10.90;99.90;;;;;;4992340;28;20186;-65
2021/10/16 07:48:35;;;;;;;23.23;18.00;;;10.80;99.90;;;;;;4992293;28;20202;-65
2021/10/16 07:51:01;;;;;;;27.53;18.90;;;11.00;99.90;;;;;;4992108;28;20235;-65
2021/10/16 07:53:26;;;;;;;23.33;18.13;;;11.10;99.90;;;;;;4992697;28;20215;-64
2021/10/16 07:55:52;;;;;;;19.40;16.60;;;10.90;99.90;;;;;;4991946;28;20198;-65
2021/10/16 07:58:19;;;;;;;19.20;15.23;;;10.80;99.90;;;;;;4992091;28;20266;-65
2021/10/16 08:00:45;;;;;;;18.67;16.27;;;10.80;99.90;;;;;;4991661;28;20183;-66
2021/10/16 08:03:10;;;;;;;22.23;17.87;;;10.80;99.90;;;;;;4994905;28;20471;-65
2021/10/16 08:05:36;;;;;;;19.87;17.57;;;10.80;99.90;;;;;;4992340;28;20183;-65
2021/10/16 08:08:01;;;;;;;37.67;24.07;;;10.80;99.90;;;;;;4991745;28;20179;-66
2021/10/16 08:10:27;;;;;;;47.83;25.43;;;10.80;99.90;;;;;;4991924;28;20227;-65
2021/10/16 08:12:53;;;;;;;29.10;22.03;;;10.80;99.90;;;;;;5006831;28;20199;-65
2021/10/16 08:15:18;;;;;;;39.63;21.53;;;10.70;99.90;;;;;;4992300;28;20680;-65
2021/10/16 08:17:44;;;;;;;41.30;24.27;;;10.70;99.90;;;;;;5007076;28;20183;-65
2021/10/16 08:20:10;;;;;;;42.83;25.40;;;10.80;99.90;;;;;;4992337;28;20183;-65
2021/10/16 08:22:41;;;;;;;36.23;21.80;;;10.70;99.90;;;;;;4992269;28;20615;-65
2021/10/16 08:25:07;;;;;;;39.43;21.70;;;10.60;99.90;;;;;;4992063;28;20464;-65
2021/10/16 08:27:33;;;;;;;28.80;20.20;;;10.60;99.90;;;;;;4991902;28;20961;-65
2021/10/16 08:29:58;;;;;;;28.20;18.37;;;10.80;99.90;;;;;;4991786;28;20461;-66
2021/10/16 08:32:24;;;;;;;26.47;19.10;;;10.90;99.90;;;;;;4992048;28;20246;-64
2021/10/16 08:34:49;;;;;;;20.83;16.87;;;11.00;99.90;;;;;;4991756;28;20635;-65
2021/10/16 08:37:15;;;;;;;25.23;15.27;;;11.00;99.90;;;;;;4991624;28;20188;-64
2021/10/16 08:39:40;;;;;;;19.53;15.60;;;11.00;99.90;;;;;;4992030;28;20175;-64
2021/10/16 08:42:06;;;;;;;15.63;14.03;;;11.00;99.90;;;;;;4991803;28;20273;-65
2021/10/16 08:44:32;;;;;;;20.53;16.20;;;11.00;99.90;;;;;;4992053;28;20192;-65
2021/10/16 08:46:58;;;;;;;23.80;15.53;;;10.90;99.90;;;;;;4991934;28;20176;-65
2021/10/16 08:49:26;;;;;;;17.53;14.40;;;11.00;99.90;;;;;;4991878;28;20658;-65
2021/10/16 08:51:52;;;;;;;24.50;17.43;;;11.00;99.90;;;;;;4991302;28;20500;-65
2021/10/16 08:54:17;;;;;;;18.60;16.73;;;11.10;99.90;;;;;;4991965;28;20457;-66
2021/10/16 08:56:43;;;;;;;29.10;19.17;;;11.20;99.90;;;;;;4991647;28;20183;-65
2021/10/16 08:59:09;;;;;;;24.40;18.23;;;11.10;99.90;;;;;;4991193;28;20175;-65
2021/10/16 09:02:13;;;;;;;25.20;18.27;;;11.20;99.90;;;;;;4991343;28;20188;-66
2021/10/16 09:04:38;;;;;;;21.40;17.40;;;11.30;99.90;;;;;;4989878;28;20248;-65
2021/10/16 09:07:21;;;;;;;26.27;18.60;;;11.20;99.90;;;;;;4991129;28;20447;-65
2021/10/16 09:09:48;;;;;;;22.40;17.47;;;11.30;99.90;;;;;;4991433;28;20171;-65
2021/10/16 09:12:15;;;;;;;19.50;17.40;;;11.40;99.90;;;;;;4991209;28;20589;-65
2021/10/16 09:14:50;;;;;;;19.80;17.33;;;11.60;99.90;;;;;;4975357;28;21046;-66
2021/10/16 09:17:17;;;;;;;24.87;18.77;;;11.40;99.90;;;;;;4988605;28;20959;-65
2021/10/16 09:19:43;;;;;;;25.60;19.00;;;11.30;99.90;;;;;;4990835;28;20434;-65
2021/10/16 09:22:18;;;;;;;23.50;18.13;;;11.40;99.90;;;;;;4991506;28;20441;-65
2021/10/16 09:24:45;;;;;;;22.33;17.13;;;11.40;99.90;;;;;;4991362;28;20890;-65
2021/10/16 09:27:19;;;;;;;19.47;17.37;;;11.50;99.90;;;;;;4990356;28;20481;-65
2021/10/16 09:29:48;;;;;;;21.50;18.37;;;11.70;99.90;;;;;;4983281;28;20442;-65
2021/10/16 09:32:18;;;;;;;26.50;22.90;;;11.70;99.90;;;;;;4991325;28;20497;-65
2021/10/16 09:34:48;;;;;;;27.67;20.50;;;11.90;99.90;;;;;;4994796;28;20524;-65
2021/10/16 09:37:17;;;;;;;28.40;21.83;;;12.00;99.90;;;;;;4979791;28;20434;-65
2021/10/16 09:39:56;;;;;;;26.27;23.40;;;12.00;99.90;;;;;;4995055;28;20435;-66
2021/10/16 09:42:30;;;;;;;28.30;23.20;;;12.10;99.90;;;;;;4994870;28;20442;-65
2021/10/16 09:44:57;;;;;;;31.60;22.40;;;12.30;99.90;;;;;;4994637;28;20442;-66
2021/10/16 09:47:23;;;;;;;32.83;24.47;;;12.40;99.90;;;;;;4994319;28;20972;-65
2021/10/16 09:50:03;;;;;;;31.23;23.23;;;12.40;99.90;;;;;;4994340;28;20423;-66
2021/10/16 09:52:41;;;;;;;33.10;26.60;;;12.50;99.90;;;;;;4993981;28;20171;-65
2021/10/16 09:55:13;;;;;;;31.03;22.90;;;12.30;99.90;;;;;;4994492;28;20529;-66
2021/10/16 09:57:42;;;;;;;37.63;24.40;;;12.40;99.90;;;;;;4994031;28;20513;-66
2021/10/16 10:00:09;;;;;;;38.33;24.77;;;12.60;99.90;;;;;;4994306;28;20952;-65
2021/10/16 10:02:35;;;;;;;33.47;24.77;;;12.80;99.90;;;;;;4993788;28;20465;-67
2021/10/16 10:05:06;;;;;;;35.80;26.63;;;13.10;99.90;;;;;;4994420;28;20474;-64
2021/10/16 10:07:33;;;;;;;33.87;25.00;;;13.30;99.90;;;;;;4994060;28;20178;-66
2021/10/16 10:09:59;;;;;;;40.87;24.93;;;13.40;99.90;;;;;;4994009;28;20462;-65
2021/10/16 10:12:26;;;;;;;40.07;27.30;;;13.60;99.90;;;;;;4994076;28;20496;-65
2021/10/16 10:14:53;;;;;;;32.60;24.73;;;13.70;99.90;;;;;;4994141;28;20863;-65
2021/10/16 10:17:24;;;;;;;34.67;25.40;;;13.90;99.90;;;;;;4993826;28;20492;-64
2021/10/16 10:19:54;;;;;;;32.83;23.53;;;14.10;99.90;;;;;;4994009;28;20532;-64
2021/10/16 10:22:21;;;;;;;32.40;23.23;;;14.40;99.90;;;;;;4993581;28;20438;-65
2021/10/16 10:24:49;;;;;;;33.60;24.37;;;14.30;99.90;;;;;;4994018;28;20816;-64
2021/10/16 10:27:17;;;;;;;28.60;22.70;;;14.40;99.90;;;;;;4986741;28;20813;-65
2021/10/16 10:29:46;;;;;;;30.93;21.90;;;14.40;99.90;;;;;;4993839;28;20437;-65
2021/10/16 10:32:21;;;;;;;32.07;23.40;;;14.50;99.90;;;;;;4991845;28;20441;-64
2021/10/16 10:34:52;;;;;;;34.17;21.07;;;14.50;99.90;;;;;;4993573;28;20446;-64
2021/10/16 10:37:18;;;;;;;20.60;17.27;;;14.40;99.90;;;;;;4993316;28;20936;-64
2021/10/16 10:39:47;;;;;;;28.13;20.00;;;14.50;99.90;;;;;;4993428;28;20529;-64
2021/10/16 10:42:12;;;;;;;22.67;19.93;;;14.10;99.90;;;;;;4993898;28;20179;-65
2021/10/16 10:44:41;;;;;;;23.07;18.80;;;13.80;99.90;;;;;;4993340;28;20480;-67
2021/10/16 10:47:24;;;;;;;24.03;19.13;;;14.30;99.90;;;;;;4993699;28;20176;-65
2021/10/16 10:49:52;;;;;;;25.73;21.33;;;14.90;99.90;;;;;;4993428;28;20553;-66
2021/10/16 10:52:19;;;;;;;22.83;20.03;;;15.40;99.90;;;;;;4993253;28;20824;-65
2021/10/16 10:55:08;;;;;;;21.60;18.97;;;15.50;99.90;;;;;;4993428;28;20976;-65
2021/10/16 10:57:50;;;;;;;29.20;20.33;;;15.40;99.90;;;;;;4993390;28;20509;-65
2021/10/16 11:00:39;;;;;;;22.70;20.17;;;16.00;99.90;;;;;;4993080;28;20529;-65
2021/10/16 11:03:30;;;;;;;21.63;18.93;;;16.30;99.90;;;;;;4980398;28;20471;-64
2021/10/16 11:06:07;;;;;;;24.23;21.67;;;16.70;99.90;;;;;;4989489;28;20441;-66
2021/10/16 11:08:33;;;;;;;22.40;20.10;;;16.60;99.90;;;;;;4992929;28;20800;-65
2021/10/16 11:10:58;;;;;;;21.93;19.03;;;16.40;99.90;;;;;;4993073;28;20470;-65
2021/10/16 11:13:24;;;;;;;19.67;17.60;;;16.60;99.90;;;;;;4992952;28;20251;-67
2021/10/16 11:15:58;;;;;;;20.87;18.63;;;16.70;99.90;;;;;;4992049;28;20176;-65
2021/10/16 11:18:24;;;;;;;25.60;20.13;;;16.80;99.90;;;;;;4991353;28;20172;-66
2021/10/16 11:20:50;;;;;;;22.40;20.13;;;16.70;99.90;;;;;;4992355;28;21217;-65
2021/10/16 11:23:24;;;;;;;25.47;21.07;;;16.50;99.90;;;;;;4988988;28;20466;-66
2021/10/16 11:25:59;;;;;;;22.00;19.70;;;16.40;99.90;;;;;;4991000;28;20853;-65
2021/10/16 11:28:25;;;;;;;21.30;19.10;;;16.60;99.90;;;;;;4992129;28;20466;-65
2021/10/16 11:30:54;;;;;;;23.70;20.50;;;16.50;99.90;;;;;;4992321;28;20493;-65
2021/10/16 11:33:24;;;;;;;24.63;21.97;;;16.40;99.90;;;;;;4992220;28;20283;-65
2021/10/16 11:35:52;;;;;;;22.87;20.43;;;16.40;99.90;;;;;;4992257;28;20489;-65
2021/10/16 11:38:22;;;;;;;22.60;20.00;;;16.20;99.90;;;;;;4995997;28;20422;-65
2021/10/16 11:40:52;;;;;;;24.10;21.00;;;16.30;99.90;;;;;;4992672;28;20441;-65
2021/10/16 11:43:21;;;;;;;24.60;22.10;;;16.40;99.90;;;;;;4992191;28;20485;-65
2021/10/16 11:45:49;;;;;;;24.23;21.10;;;16.40;99.90;;;;;;5002166;28;20437;-65
2021/10/16 11:48:17;;;;;;;24.07;21.50;;;16.30;99.90;;;;;;4992279;28;21367;-65
2021/10/16 11:50:48;;;;;;;21.67;18.83;;;15.80;99.90;;;;;;4992533;28;20470;-65
2021/10/16 11:53:15;;;;;;;23.20;21.00;;;16.00;99.90;;;;;;4991792;28;20459;-67
2021/10/16 11:55:42;;;;;;;23.40;20.90;;;16.30;99.90;;;;;;4985308;28;20440;-65
2021/10/16 11:58:13;;;;;;;25.53;22.70;;;16.70;99.90;;;;;;4988907;28;21172;-65
2021/10/16 12:00:40;;;;;;;22.03;19.83;;;17.50;99.90;;;;;;4977074;28;22025;-65
2021/10/16 12:03:17;;;;;;;24.20;21.80;;;18.70;99.90;;;;;;4991009;28;20470;-65
2021/10/16 12:05:46;;;;;;;24.20;21.80;;;20.40;99.90;;;;;;4989685;28;20488;-68
2021/10/16 12:08:29;;;;;;;23.50;21.10;;;20.50;99.90;;;;;;4991258;28;20439;-68
2021/10/16 12:10:56;;;;;;;23.27;20.90;;;21.90;99.90;;;;;;4978664;28;20489;-70
2021/10/16 12:13:40;;;;;;;25.20;22.70;;;23.80;96.40;;;;;;4992202;28;20461;-70
2021/10/16 12:16:16;;;;;;;22.47;20.30;;;25.10;92.80;;;;;;5006837;28;20473;-69
2021/10/16 12:18:59;;;;;;;21.37;19.47;;;27.70;85.80;;;;;;4991312;28;20449;-70
2021/10/16 12:21:36;;;;;;;20.47;18.67;;;29.90;72.40;;;;;;4991994;28;20932;-70
2021/10/16 12:24:12;;;;;;;22.10;20.20;;;30.50;65.20;;;;;;4990680;28;20474;-69
2021/10/16 12:26:39;;;;;;;21.27;19.27;;;31.40;60.60;;;;;;4990370;28;20982;-68
2021/10/16 12:29:28;;;;;;;21.70;19.70;;;32.30;56.50;;;;;;4989911;28;20932;-70
2021/10/16 12:31:54;;;;;;;19.60;18.03;;;32.80;54.10;;;;;;4991653;28;20466;-69